sensor_id;sensor_type;location;lat;lon;timestamp;pressure;altitude;pressure_sealevel;temperature;humidity
17230;BME280;8731;50.364;8.958;2023-04-10T00:01:31;100819.47;;;5.98;75.63
17230;BME280;8731;50.364;8.958;2023-04-10T00:05:55;100823.34;;;5.89;76.90
17230;BME280;8731;50.364;8.958;2023-04-10T00:10:19;100817.72;;;5.70;77.17
17230;BME280;8731;50.364;8.958;2023-04-10T00:14:42;100824.78;;;5.72;76.91
17230;BME280;8731;50.364;8.958;2023-04-10T00:19:05;100828.22;;;5.87;76.25
17230;BME280;8731;50.364;8.958;2023-04-10T00:23:28;100826.75;;;5.75;75.88
17230;BME280;8731;50.364;8.958;2023-04-10T00:27:55;100827.13;;;5.85;75.87
17230;BME280;8731;50.364;8.958;2023-04-10T00:32:17;100832.00;;;5.76;76.73
17230;BME280;8731;50.364;8.958;2023-04-10T00:36:44;100828.91;;;5.38;78.90
17230;BME280;8731;50.364;8.958;2023-04-10T00:41:07;100828.69;;;5.63;77.86
17230;BME280;8731;50.364;8.958;2023-04-10T00:45:31;100827.78;;;5.63;77.35
17230;BME280;8731;50.364;8.958;2023-04-10T00:49:54;100829.22;;;5.61;77.04
17230;BME280;8731;50.364;8.958;2023-04-10T00:54:17;100831.75;;;5.61;76.57
17230;BME280;8731;50.364;8.958;2023-04-10T00:58:40;100830.38;;;5.43;78.31
17230;BME280;8731;50.364;8.958;2023-04-10T01:03:04;100835.13;;;5.47;76.78
17230;BME280;8731;50.364;8.958;2023-04-10T01:07:34;100838.19;;;5.44;77.42
17230;BME280;8731;50.364;8.958;2023-04-10T01:12:11;100839.28;;;5.46;76.92
17230;BME280;8731;50.364;8.958;2023-04-10T01:16:50;100835.72;;;5.24;77.85
17230;BME280;8731;50.364;8.958;2023-04-10T01:21:20;100840.25;;;5.27;78.15
17230;BME280;8731;50.364;8.958;2023-04-10T01:25:45;100834.94;;;5.18;78.95
17230;BME280;8731;50.364;8.958;2023-04-10T01:30:16;100837.72;;;5.27;77.00
17230;BME280;8731;50.364;8.958;2023-04-10T01:34:44;100833.13;;;5.17;77.46
17230;BME280;8731;50.364;8.958;2023-04-10T01:39:09;100838.31;;;5.12;78.15
17230;BME280;8731;50.364;8.958;2023-04-10T01:43:34;100831.63;;;5.05;78.50
17230;BME280;8731;50.364;8.958;2023-04-10T01:48:02;100840.66;;;5.10;78.34
17230;BME280;8731;50.364;8.958;2023-04-10T01:52:25;100840.69;;;4.90;78.97
17230;BME280;8731;50.364;8.958;2023-04-10T01:57:00;100835.06;;;5.06;78.17
17230;BME280;8731;50.364;8.958;2023-04-10T02:01:31;100833.69;;;4.95;77.83
17230;BME280;8731;50.364;8.958;2023-04-10T02:06:07;100827.91;;;4.89;78.84
17230;BME280;8731;50.364;8.958;2023-04-10T02:10:40;100831.69;;;4.92;77.52
17230;BME280;8731;50.364;8.958;2023-04-10T02:15:11;100821.41;;;4.91;78.51
17230;BME280;8731;50.364;8.958;2023-04-10T02:19:34;100809.03;;;4.73;78.93
17230;BME280;8731;50.364;8.958;2023-04-10T02:24:00;100809.38;;;4.49;81.79
17230;BME280;8731;50.364;8.958;2023-04-10T02:28:23;100809.38;;;4.69;79.92
17230;BME280;8731;50.364;8.958;2023-04-10T02:32:50;100808.38;;;4.34;82.39
17230;BME280;8731;50.364;8.958;2023-04-10T02:37:13;100801.06;;;4.43;82.53
17230;BME280;8731;50.364;8.958;2023-04-10T02:41:37;100789.97;;;4.28;82.06
17230;BME280;8731;50.364;8.958;2023-04-10T02:46:00;100797.38;;;4.34;82.36
17230;BME280;8731;50.364;8.958;2023-04-10T02:50:30;100807.50;;;4.21;83.10
17230;BME280;8731;50.364;8.958;2023-04-10T02:54:53;100795.75;;;4.34;81.05
17230;BME280;8731;50.364;8.958;2023-04-10T02:59:19;100802.97;;;4.18;82.47
17230;BME280;8731;50.364;8.958;2023-04-10T03:03:42;100799.50;;;4.11;82.48
17230;BME280;8731;50.364;8.958;2023-04-10T03:08:07;100793.69;;;4.24;81.30
17230;BME280;8731;50.364;8.958;2023-04-10T03:12:29;100800.25;;;3.97;82.55
17230;BME280;8731;50.364;8.958;2023-04-10T03:16:54;100800.34;;;4.04;82.77
17230;BME280;8731;50.364;8.958;2023-04-10T03:21:16;100801.88;;;3.96;83.79
17230;BME280;8731;50.364;8.958;2023-04-10T03:25:39;100800.50;;;3.86;83.59
17230;BME280;8731;50.364;8.958;2023-04-10T03:30:03;100793.06;;;4.00;82.97
17230;BME280;8731;50.364;8.958;2023-04-10T03:34:35;100792.16;;;3.99;82.19
17230;BME280;8731;50.364;8.958;2023-04-10T03:38:57;100794.88;;;3.81;84.19
17230;BME280;8731;50.364;8.958;2023-04-10T03:43:20;100784.44;;;3.65;84.42
17230;BME280;8731;50.364;8.958;2023-04-10T03:47:43;100766.38;;;3.75;84.00
17230;BME280;8731;50.364;8.958;2023-04-10T03:52:10;100771.78;;;3.78;83.87
17230;BME280;8731;50.364;8.958;2023-04-10T03:56:33;100780.31;;;3.53;86.95
17230;BME280;8731;50.364;8.958;2023-04-10T04:00:56;100776.75;;;3.84;84.75
17230;BME280;8731;50.364;8.958;2023-04-10T04:05:28;100771.53;;;3.69;84.30
17230;BME280;8731;50.364;8.958;2023-04-10T04:10:17;100767.28;;;3.76;84.78
17230;BME280;8731;50.364;8.958;2023-04-10T04:14:53;100771.72;;;3.71;84.40
17230;BME280;8731;50.364;8.958;2023-04-10T04:19:19;100765.59;;;3.69;85.28
17230;BME280;8731;50.364;8.958;2023-04-10T04:24:05;100765.75;;;3.83;84.10
17230;BME280;8731;50.364;8.958;2023-04-10T04:28:48;100765.47;;;3.75;83.83
17230;BME280;8731;50.364;8.958;2023-04-10T04:33:43;100772.13;;;3.74;84.85
17230;BME280;8731;50.364;8.958;2023-04-10T04:38:39;100774.31;;;3.78;83.67
17230;BME280;8731;50.364;8.958;2023-04-10T04:43:09;100771.56;;;3.89;83.97
17230;BME280;8731;50.364;8.958;2023-04-10T04:48:03;100777.91;;;3.93;83.98
17230;BME280;8731;50.364;8.958;2023-04-10T04:52:44;100772.03;;;3.99;84.39
17230;BME280;8731;50.364;8.958;2023-04-10T04:57:23;100765.19;;;3.98;85.52
17230;BME280;8731;50.364;8.958;2023-04-10T05:02:10;100768.75;;;4.13;85.36
17230;BME280;8731;50.364;8.958;2023-04-10T05:07:01;100769.78;;;4.28;83.79
17230;BME280;8731;50.364;8.958;2023-04-10T05:11:51;100767.50;;;4.37;85.42
17230;BME280;8731;50.364;8.958;2023-04-10T05:16:33;100769.94;;;4.49;85.54
17230;BME280;8731;50.364;8.958;2023-04-10T05:21:27;100776.19;;;4.66;84.17
17230;BME280;8731;50.364;8.958;2023-04-10T05:26:11;100768.03;;;4.81;85.51
17230;BME280;8731;50.364;8.958;2023-04-10T05:31:09;100773.53;;;5.25;84.99
17230;BME280;8731;50.364;8.958;2023-04-10T05:35:33;100764.28;;;5.67;83.37
17230;BME280;8731;50.364;8.958;2023-04-10T05:40:20;100762.06;;;6.04;82.50
17230;BME280;8731;50.364;8.958;2023-04-10T05:45:08;100767.88;;;6.45;81.47
17230;BME280;8731;50.364;8.958;2023-04-10T05:49:55;100768.16;;;7.13;79.58
17230;BME280;8731;50.364;8.958;2023-04-10T05:54:42;100762.25;;;8.09;76.85
17230;BME280;8731;50.364;8.958;2023-04-10T05:59:24;100766.31;;;9.07;74.96
17230;BME280;8731;50.364;8.958;2023-04-10T06:04:13;100769.78;;;9.23;73.42
17230;BME280;8731;50.364;8.958;2023-04-10T06:08:36;100760.41;;;10.11;72.63
17230;BME280;8731;50.364;8.958;2023-04-10T06:12:58;100769.50;;;10.50;71.00
17230;BME280;8731;50.364;8.958;2023-04-10T06:17:21;100761.88;;;11.00;68.67
17230;BME280;8731;50.364;8.958;2023-04-10T06:21:46;100753.81;;;11.13;70.04
17230;BME280;8731;50.364;8.958;2023-04-10T06:26:09;100746.19;;;11.64;69.32
17230;BME280;8731;50.364;8.958;2023-04-10T06:30:32;100747.25;;;11.84;67.94
17230;BME280;8731;50.364;8.958;2023-04-10T06:34:58;100745.84;;;12.58;64.56
17230;BME280;8731;50.364;8.958;2023-04-10T06:39:22;100741.56;;;12.95;63.28
17230;BME280;8731;50.364;8.958;2023-04-10T06:43:46;100742.00;;;13.45;64.36
17230;BME280;8731;50.364;8.958;2023-04-10T06:48:09;100734.94;;;12.97;62.62
17230;BME280;8731;50.364;8.958;2023-04-10T06:52:31;100740.88;;;12.59;63.70
17230;BME280;8731;50.364;8.958;2023-04-10T06:56:55;100739.78;;;12.94;63.06
17230;BME280;8731;50.364;8.958;2023-04-10T07:01:19;100738.19;;;12.77;60.28
17230;BME280;8731;50.364;8.958;2023-04-10T07:05:42;100730.75;;;13.16;61.81
17230;BME280;8731;50.364;8.958;2023-04-10T07:10:05;100738.13;;;12.67;60.77
17230;BME280;8731;50.364;8.958;2023-04-10T07:14:31;100731.63;;;12.98;59.54
17230;BME280;8731;50.364;8.958;2023-04-10T07:18:55;100732.78;;;13.47;58.44
17230;BME280;8731;50.364;8.958;2023-04-10T07:23:19;100732.03;;;13.48;58.77
17230;BME280;8731;50.364;8.958;2023-04-10T07:27:45;100722.53;;;13.66;57.00
17230;BME280;8731;50.364;8.958;2023-04-10T07:32:09;100727.09;;;13.04;55.99
17230;BME280;8731;50.364;8.958;2023-04-10T07:36:32;100720.56;;;13.54;55.31
17230;BME280;8731;50.364;8.958;2023-04-10T07:40:56;100718.22;;;14.33;55.77
17230;BME280;8731;50.364;8.958;2023-04-10T07:45:19;100716.69;;;14.74;54.93
17230;BME280;8731;50.364;8.958;2023-04-10T07:49:43;100709.72;;;14.53;53.48
17230;BME280;8731;50.364;8.958;2023-04-10T07:54:05;100701.53;;;15.08;53.17
17230;BME280;8731;50.364;8.958;2023-04-10T07:58:28;100700.91;;;14.70;53.73
17230;BME280;8731;50.364;8.958;2023-04-10T08:02:52;100693.47;;;15.03;53.01
17230;BME280;8731;50.364;8.958;2023-04-10T08:07:20;100690.59;;;15.41;52.00
17230;BME280;8731;50.364;8.958;2023-04-10T08:11:43;100688.47;;;14.74;51.21
17230;BME280;8731;50.364;8.958;2023-04-10T08:16:07;100680.72;;;15.46;51.14
17230;BME280;8731;50.364;8.958;2023-04-10T08:20:29;100681.84;;;15.49;50.57
17230;BME280;8731;50.364;8.958;2023-04-10T08:24:57;100674.75;;;15.57;49.50
17230;BME280;8731;50.364;8.958;2023-04-10T08:29:19;100668.31;;;16.26;48.24
17230;BME280;8731;50.364;8.958;2023-04-10T08:33:42;100665.19;;;16.08;47.86
17230;BME280;8731;50.364;8.958;2023-04-10T08:38:05;100671.34;;;16.32;47.27
17230;BME280;8731;50.364;8.958;2023-04-10T08:42:29;100653.84;;;16.82;49.17
17230;BME280;8731;50.364;8.958;2023-04-10T08:46:51;100648.84;;;17.42;46.26
17230;BME280;8731;50.364;8.958;2023-04-10T08:51:18;100645.72;;;17.11;45.99
17230;BME280;8731;50.364;8.958;2023-04-10T08:55:43;100627.38;;;17.53;48.05
17230;BME280;8731;50.364;8.958;2023-04-10T09:00:10;100623.66;;;17.61;47.12
17230;BME280;8731;50.364;8.958;2023-04-10T09:04:35;100619.78;;;18.03;47.00
17230;BME280;8731;50.364;8.958;2023-04-10T09:08:57;100611.13;;;17.77;46.64
17230;BME280;8731;50.364;8.958;2023-04-10T09:13:34;100611.25;;;17.21;46.70
17230;BME280;8731;50.364;8.958;2023-04-10T09:18:01;100590.44;;;18.51;45.07
17230;BME280;8731;50.364;8.958;2023-04-10T09:22:29;100588.59;;;18.99;45.66
17230;BME280;8731;50.364;8.958;2023-04-10T09:26:54;100580.81;;;18.86;42.69
17230;BME280;8731;50.364;8.958;2023-04-10T09:31:27;100582.19;;;18.81;43.33
17230;BME280;8731;50.364;8.958;2023-04-10T09:35:52;100571.44;;;18.37;43.80
17230;BME280;8731;50.364;8.958;2023-04-10T09:40:20;100575.50;;;18.08;42.68
17230;BME280;8731;50.364;8.958;2023-04-10T09:44:45;100571.03;;;18.06;41.98
17230;BME280;8731;50.364;8.958;2023-04-10T09:49:07;100551.72;;;18.37;45.96
17230;BME280;8731;50.364;8.958;2023-04-10T09:53:47;100545.50;;;17.72;42.84
17230;BME280;8731;50.364;8.958;2023-04-10T09:58:10;100535.63;;;17.67;42.97
17230;BME280;8731;50.364;8.958;2023-04-10T10:02:35;100535.69;;;17.55;43.25
17230;BME280;8731;50.364;8.958;2023-04-10T10:06:59;100516.28;;;17.60;43.74
17230;BME280;8731;50.364;8.958;2023-04-10T10:11:24;100511.47;;;17.76;44.45
17230;BME280;8731;50.364;8.958;2023-04-10T10:15:52;100509.56;;;17.62;43.27
17230;BME280;8731;50.364;8.958;2023-04-10T10:20:30;100498.16;;;18.72;42.56
17230;BME280;8731;50.364;8.958;2023-04-10T10:24:55;100494.94;;;19.28;41.54
17230;BME280;8731;50.364;8.958;2023-04-10T10:29:22;100492.69;;;18.80;42.97
17230;BME280;8731;50.364;8.958;2023-04-10T10:33:46;100480.72;;;19.35;41.83
17230;BME280;8731;50.364;8.958;2023-04-10T10:38:09;100470.63;;;19.66;40.68
17230;BME280;8731;50.364;8.958;2023-04-10T10:42:35;100464.03;;;19.43;39.29
17230;BME280;8731;50.364;8.958;2023-04-10T10:47:08;100448.72;;;19.46;38.96
17230;BME280;8731;50.364;8.958;2023-04-10T10:51:42;100452.00;;;18.63;39.95
17230;BME280;8731;50.364;8.958;2023-04-10T10:56:32;100439.56;;;19.10;39.41
17230;BME280;8731;50.364;8.958;2023-04-10T11:01:05;100440.44;;;19.24;38.11
17230;BME280;8731;50.364;8.958;2023-04-10T11:05:52;100430.19;;;19.67;38.01
17230;BME280;8731;50.364;8.958;2023-04-10T11:10:16;100418.00;;;20.08;38.55
17230;BME280;8731;50.364;8.958;2023-04-10T11:14:38;100413.81;;;20.54;37.55
17230;BME280;8731;50.364;8.958;2023-04-10T11:19:03;100413.28;;;20.31;38.74
17230;BME280;8731;50.364;8.958;2023-04-10T11:23:28;100415.25;;;19.07;36.76
17230;BME280;8731;50.364;8.958;2023-04-10T11:27:51;100401.53;;;20.81;36.68
17230;BME280;8731;50.364;8.958;2023-04-10T11:32:14;100369.22;;;20.90;37.92
17230;BME280;8731;50.364;8.958;2023-04-10T11:36:39;100371.53;;;19.23;37.39
17230;BME280;8731;50.364;8.958;2023-04-10T11:41:05;100366.97;;;18.51;37.89
17230;BME280;8731;50.364;8.958;2023-04-10T11:45:27;100358.22;;;18.89;38.36
17230;BME280;8731;50.364;8.958;2023-04-10T11:49:52;100349.78;;;19.19;39.77
17230;BME280;8731;50.364;8.958;2023-04-10T11:54:18;100340.66;;;19.82;39.69
17230;BME280;8731;50.364;8.958;2023-04-10T11:58:43;100338.88;;;19.96;39.26
17230;BME280;8731;50.364;8.958;2023-04-10T12:03:09;100325.72;;;18.38;40.85
17230;BME280;8731;50.364;8.958;2023-04-10T12:07:32;100309.56;;;19.66;39.62
17230;BME280;8731;50.364;8.958;2023-04-10T12:11:56;100323.63;;;19.28;39.21
17230;BME280;8731;50.364;8.958;2023-04-10T12:16:21;100317.09;;;18.37;38.44
17230;BME280;8731;50.364;8.958;2023-04-10T12:20:44;100309.19;;;18.89;40.07
17230;BME280;8731;50.364;8.958;2023-04-10T12:25:11;100292.84;;;19.46;40.23
17230;BME280;8731;50.364;8.958;2023-04-10T12:29:34;100301.50;;;19.04;40.01
17230;BME280;8731;50.364;8.958;2023-04-10T12:33:59;100284.91;;;19.28;39.57
17230;BME280;8731;50.364;8.958;2023-04-10T12:38:38;100279.25;;;19.78;40.32
17230;BME280;8731;50.364;8.958;2023-04-10T12:43:03;100280.03;;;19.47;39.98
17230;BME280;8731;50.364;8.958;2023-04-10T12:47:27;100270.50;;;19.46;39.01
17230;BME280;8731;50.364;8.958;2023-04-10T12:51:51;100266.53;;;19.66;38.49
17230;BME280;8731;50.364;8.958;2023-04-10T12:56:15;100263.56;;;19.45;37.34
17230;BME280;8731;50.364;8.958;2023-04-10T13:00:39;100260.19;;;19.76;38.27
17230;BME280;8731;50.364;8.958;2023-04-10T13:05:02;100251.38;;;19.72;38.68
17230;BME280;8731;50.364;8.958;2023-04-10T13:09:26;100245.66;;;18.63;39.75
17230;BME280;8731;50.364;8.958;2023-04-10T13:13:48;100233.50;;;18.34;38.87
17230;BME280;8731;50.364;8.958;2023-04-10T13:18:13;100222.47;;;19.06;38.84
17230;BME280;8731;50.364;8.958;2023-04-10T13:22:35;100214.84;;;19.51;37.86
17230;BME280;8731;50.364;8.958;2023-04-10T13:26:59;100214.38;;;18.99;36.82
17230;BME280;8731;50.364;8.958;2023-04-10T13:31:22;100205.75;;;19.73;37.49
17230;BME280;8731;50.364;8.958;2023-04-10T13:35:45;100210.28;;;19.03;36.18
17230;BME280;8731;50.364;8.958;2023-04-10T13:40:08;100184.44;;;18.74;37.43
17230;BME280;8731;50.364;8.958;2023-04-10T13:44:32;100182.31;;;19.11;39.07
17230;BME280;8731;50.364;8.958;2023-04-10T13:48:55;100177.06;;;19.39;36.75
17230;BME280;8731;50.364;8.958;2023-04-10T13:53:18;100168.91;;;19.46;37.59
17230;BME280;8731;50.364;8.958;2023-04-10T13:57:40;100164.63;;;19.02;37.49
17230;BME280;8731;50.364;8.958;2023-04-10T14:02:04;100158.41;;;18.98;36.44
17230;BME280;8731;50.364;8.958;2023-04-10T14:06:28;100154.91;;;19.13;37.73
17230;BME280;8731;50.364;8.958;2023-04-10T14:10:52;100135.91;;;18.68;37.90
17230;BME280;8731;50.364;8.958;2023-04-10T14:15:16;100125.81;;;18.71;37.68
17230;BME280;8731;50.364;8.958;2023-04-10T14:19:43;100121.91;;;18.50;36.71
17230;BME280;8731;50.364;8.958;2023-04-10T14:24:08;100113.69;;;19.29;37.13
17230;BME280;8731;50.364;8.958;2023-04-10T14:28:30;100099.72;;;19.25;37.62
17230;BME280;8731;50.364;8.958;2023-04-10T14:32:53;100094.50;;;18.94;35.84
17230;BME280;8731;50.364;8.958;2023-04-10T14:37:17;100087.28;;;18.89;37.11
17230;BME280;8731;50.364;8.958;2023-04-10T14:41:39;100086.63;;;18.49;36.44
17230;BME280;8731;50.364;8.958;2023-04-10T14:46:02;100068.34;;;18.88;37.55
17230;BME280;8731;50.364;8.958;2023-04-10T14:50:24;100071.09;;;18.77;36.93
17230;BME280;8731;50.364;8.958;2023-04-10T14:54:49;100060.94;;;18.65;38.03
17230;BME280;8731;50.364;8.958;2023-04-10T14:59:12;100046.94;;;18.32;38.03
17230;BME280;8731;50.364;8.958;2023-04-10T15:03:35;100040.25;;;18.78;38.21
17230;BME280;8731;50.364;8.958;2023-04-10T15:07:57;100032.94;;;18.71;38.41
17230;BME280;8731;50.364;8.958;2023-04-10T15:12:21;100018.75;;;18.35;37.00
17230;BME280;8731;50.364;8.958;2023-04-10T15:16:45;100004.78;;;18.61;38.20
17230;BME280;8731;50.364;8.958;2023-04-10T15:21:07;100013.06;;;18.55;38.03
17230;BME280;8731;50.364;8.958;2023-04-10T15:25:31;100002.94;;;18.58;37.81
17230;BME280;8731;50.364;8.958;2023-04-10T15:29:55;99986.16;;;18.65;38.74
17230;BME280;8731;50.364;8.958;2023-04-10T15:34:18;99981.84;;;18.36;38.58
17230;BME280;8731;50.364;8.958;2023-04-10T15:38:41;99973.41;;;18.24;38.39
17230;BME280;8731;50.364;8.958;2023-04-10T15:43:03;99958.03;;;18.55;39.17
17230;BME280;8731;50.364;8.958;2023-04-10T15:47:28;99951.13;;;18.24;38.11
17230;BME280;8731;50.364;8.958;2023-04-10T15:51:51;99929.41;;;18.35;38.71
17230;BME280;8731;50.364;8.958;2023-04-10T15:56:14;99930.47;;;18.09;37.35
17230;BME280;8731;50.364;8.958;2023-04-10T16:00:37;99921.38;;;17.87;37.63
17230;BME280;8731;50.364;8.958;2023-04-10T16:05:01;99912.69;;;18.14;37.41
17230;BME280;8731;50.364;8.958;2023-04-10T16:09:23;99900.72;;;18.00;37.42
17230;BME280;8731;50.364;8.958;2023-04-10T16:13:46;99908.19;;;18.10;37.46
17230;BME280;8731;50.364;8.958;2023-04-10T16:18:08;99888.38;;;18.09;37.88
17230;BME280;8731;50.364;8.958;2023-04-10T16:22:32;99895.31;;;18.25;38.35
17230;BME280;8731;50.364;8.958;2023-04-10T16:26:55;99899.38;;;18.21;38.61
17230;BME280;8731;50.364;8.958;2023-04-10T16:31:18;99894.31;;;18.23;39.42
17230;BME280;8731;50.364;8.958;2023-04-10T16:35:40;99886.31;;;18.18;39.44
17230;BME280;8731;50.364;8.958;2023-04-10T16:40:06;99892.38;;;18.04;39.40
17230;BME280;8731;50.364;8.958;2023-04-10T16:44:30;99882.69;;;18.00;39.08
17230;BME280;8731;50.364;8.958;2023-04-10T16:48:53;99871.13;;;17.78;40.18
17230;BME280;8731;50.364;8.958;2023-04-10T16:53:15;99877.44;;;17.84;39.73
17230;BME280;8731;50.364;8.958;2023-04-10T16:57:41;99859.31;;;17.82;40.79
17230;BME280;8731;50.364;8.958;2023-04-10T17:02:03;99851.91;;;17.73;40.38
17230;BME280;8731;50.364;8.958;2023-04-10T17:06:26;99848.75;;;17.77;39.92
17230;BME280;8731;50.364;8.958;2023-04-10T17:10:48;99842.41;;;17.72;40.93
17230;BME280;8731;50.364;8.958;2023-04-10T17:15:12;99830.75;;;17.64;40.50
17230;BME280;8731;50.364;8.958;2023-04-10T17:19:35;99833.06;;;17.60;41.43
17230;BME280;8731;50.364;8.958;2023-04-10T17:23:58;99828.34;;;17.53;40.96
17230;BME280;8731;50.364;8.958;2023-04-10T17:28:21;99815.66;;;17.56;40.96
17230;BME280;8731;50.364;8.958;2023-04-10T17:32:45;99806.63;;;17.19;40.44
17230;BME280;8731;50.364;8.958;2023-04-10T17:37:08;99806.56;;;17.47;41.06
17230;BME280;8731;50.364;8.958;2023-04-10T17:41:31;99795.84;;;17.40;39.73
17230;BME280;8731;50.364;8.958;2023-04-10T17:45:53;99788.97;;;17.26;40.55
17230;BME280;8731;50.364;8.958;2023-04-10T17:50:17;99791.97;;;17.18;39.26
17230;BME280;8731;50.364;8.958;2023-04-10T17:54:40;99791.19;;;17.19;39.45
17230;BME280;8731;50.364;8.958;2023-04-10T17:59:03;99793.16;;;16.96;38.60
17230;BME280;8731;50.364;8.958;2023-04-10T18:03:26;99792.78;;;16.90;38.61
17230;BME280;8731;50.364;8.958;2023-04-10T18:07:50;99775.06;;;16.94;39.23
17230;BME280;8731;50.364;8.958;2023-04-10T18:12:12;99750.75;;;16.89;39.04
17230;BME280;8731;50.364;8.958;2023-04-10T18:16:35;99762.25;;;16.81;39.37
17230;BME280;8731;50.364;8.958;2023-04-10T18:21:01;99774.53;;;16.72;39.29
17230;BME280;8731;50.364;8.958;2023-04-10T18:25:25;99789.16;;;16.73;39.70
17230;BME280;8731;50.364;8.958;2023-04-10T18:29:47;99791.25;;;16.65;39.48
17230;BME280;8731;50.364;8.958;2023-04-10T18:34:10;99769.59;;;16.62;39.00
17230;BME280;8731;50.364;8.958;2023-04-10T18:38:33;99775.72;;;16.50;38.77
17230;BME280;8731;50.364;8.958;2023-04-10T18:42:57;99769.09;;;16.54;40.21
17230;BME280;8731;50.364;8.958;2023-04-10T18:47:19;99777.13;;;16.45;41.00
17230;BME280;8731;50.364;8.958;2023-04-10T18:51:42;99769.44;;;16.45;41.47
17230;BME280;8731;50.364;8.958;2023-04-10T18:56:05;99776.94;;;16.42;41.45
17230;BME280;8731;50.364;8.958;2023-04-10T19:00:30;99767.69;;;16.18;41.68
17230;BME280;8731;50.364;8.958;2023-04-10T19:04:53;99777.47;;;16.10;41.65
17230;BME280;8731;50.364;8.958;2023-04-10T19:09:16;99765.72;;;16.14;41.27
17230;BME280;8731;50.364;8.958;2023-04-10T19:13:38;99786.66;;;16.20;41.40
17230;BME280;8731;50.364;8.958;2023-04-10T19:18:02;99788.41;;;16.08;40.95
17230;BME280;8731;50.364;8.958;2023-04-10T19:22:24;99770.84;;;16.01;41.02
17230;BME280;8731;50.364;8.958;2023-04-10T19:26:48;99769.16;;;16.01;40.88
17230;BME280;8731;50.364;8.958;2023-04-10T19:31:10;99765.72;;;16.01;40.86
17230;BME280;8731;50.364;8.958;2023-04-10T19:35:34;99745.56;;;15.93;40.70
17230;BME280;8731;50.364;8.958;2023-04-10T19:39:57;99745.56;;;15.93;40.42
17230;BME280;8731;50.364;8.958;2023-04-10T19:44:19;99737.75;;;15.79;40.64
17230;BME280;8731;50.364;8.958;2023-04-10T19:48:41;99736.69;;;15.88;41.02
17230;BME280;8731;50.364;8.958;2023-04-10T19:53:05;99735.13;;;15.90;41.20
17230;BME280;8731;50.364;8.958;2023-04-10T19:57:30;99727.41;;;15.77;41.59
17230;BME280;8731;50.364;8.958;2023-04-10T20:01:54;99723.84;;;15.75;41.55
17230;BME280;8731;50.364;8.958;2023-04-10T20:06:16;99697.38;;;15.76;41.84
17230;BME280;8731;50.364;8.958;2023-04-10T20:10:42;99697.88;;;15.71;42.01
17230;BME280;8731;50.364;8.958;2023-04-10T20:15:05;99699.66;;;15.72;42.11
17230;BME280;8731;50.364;8.958;2023-04-10T20:19:29;99700.84;;;15.63;42.16
17230;BME280;8731;50.364;8.958;2023-04-10T20:23:51;99692.38;;;15.64;42.45
17230;BME280;8731;50.364;8.958;2023-04-10T20:28:19;99685.56;;;15.65;42.37
17230;BME280;8731;50.364;8.958;2023-04-10T20:32:42;99677.66;;;15.62;42.95
17230;BME280;8731;50.364;8.958;2023-04-10T20:37:06;99673.50;;;15.64;42.96
17230;BME280;8731;50.364;8.958;2023-04-10T20:41:28;99699.41;;;15.55;45.21
17230;BME280;8731;50.364;8.958;2023-04-10T20:45:52;99695.41;;;15.59;47.10
17230;BME280;8731;50.364;8.958;2023-04-10T20:50:15;99692.19;;;15.61;48.53
17230;BME280;8731;50.364;8.958;2023-04-10T20:54:38;99687.94;;;15.62;49.11
17230;BME280;8731;50.364;8.958;2023-04-10T20:59:00;99679.22;;;15.60;50.19
17230;BME280;8731;50.364;8.958;2023-04-10T21:03:24;99657.75;;;15.20;51.65
17230;BME280;8731;50.364;8.958;2023-04-10T21:07:47;99641.59;;;15.47;50.55
17230;BME280;8731;50.364;8.958;2023-04-10T21:12:09;99631.81;;;15.42;53.34
17230;BME280;8731;50.364;8.958;2023-04-10T21:16:32;99637.53;;;15.51;53.25
17230;BME280;8731;50.364;8.958;2023-04-10T21:21:01;99624.19;;;15.03;57.07
17230;BME280;8731;50.364;8.958;2023-04-10T21:25:23;99614.75;;;15.29;54.22
17230;BME280;8731;50.364;8.958;2023-04-10T21:29:46;99623.53;;;15.19;55.14
17230;BME280;8731;50.364;8.958;2023-04-10T21:34:08;99626.00;;;15.18;54.90
17230;BME280;8731;50.364;8.958;2023-04-10T21:38:33;99605.34;;;15.03;56.83
17230;BME280;8731;50.364;8.958;2023-04-10T21:42:55;99577.84;;;15.00;56.00
17230;BME280;8731;50.364;8.958;2023-04-10T21:47:18;99550.50;;;14.88;57.28
17230;BME280;8731;50.364;8.958;2023-04-10T21:51:40;99553.47;;;14.81;57.42
17230;BME280;8731;50.364;8.958;2023-04-10T21:56:05;99550.91;;;14.81;56.07
17230;BME280;8731;50.364;8.958;2023-04-10T22:00:28;99549.56;;;14.61;57.30
17230;BME280;8731;50.364;8.958;2023-04-10T22:04:51;99550.50;;;14.74;56.33
17230;BME280;8731;50.364;8.958;2023-04-10T22:09:13;99535.53;;;14.67;55.93
17230;BME280;8731;50.364;8.958;2023-04-10T22:13:38;99529.41;;;14.79;55.72
17230;BME280;8731;50.364;8.958;2023-04-10T22:18:01;99539.56;;;14.77;55.52
17230;BME280;8731;50.364;8.958;2023-04-10T22:22:23;99532.56;;;14.74;55.72
17230;BME280;8731;50.364;8.958;2023-04-10T22:26:47;99551.28;;;14.73;56.43
17230;BME280;8731;50.364;8.958;2023-04-10T22:31:14;99563.97;;;14.59;57.24
17230;BME280;8731;50.364;8.958;2023-04-10T22:35:37;99553.81;;;14.47;56.78
17230;BME280;8731;50.364;8.958;2023-04-10T22:40:00;99572.50;;;14.21;60.34
17230;BME280;8731;50.364;8.958;2023-04-10T22:44:22;99584.16;;;14.18;62.56
17230;BME280;8731;50.364;8.958;2023-04-10T22:48:47;99580.50;;;14.14;64.45
17230;BME280;8731;50.364;8.958;2023-04-10T22:53:10;99586.22;;;14.10;67.45
17230;BME280;8731;50.364;8.958;2023-04-10T22:57:32;99586.75;;;13.81;72.23
17230;BME280;8731;50.364;8.958;2023-04-10T23:01:55;99588.78;;;13.73;75.36
17230;BME280;8731;50.364;8.958;2023-04-10T23:06:19;99594.78;;;13.74;76.51
17230;BME280;8731;50.364;8.958;2023-04-10T23:10:42;99577.66;;;13.73;75.53
17230;BME280;8731;50.364;8.958;2023-04-10T23:15:06;99587.25;;;13.40;80.46
17230;BME280;8731;50.364;8.958;2023-04-10T23:19:29;99577.56;;;13.48;80.95
17230;BME280;8731;50.364;8.958;2023-04-10T23:23:53;99590.03;;;13.43;81.07
17230;BME280;8731;50.364;8.958;2023-04-10T23:28:15;99586.47;;;13.41;81.86
17230;BME280;8731;50.364;8.958;2023-04-10T23:32:38;99594.59;;;13.47;81.17
17230;BME280;8731;50.364;8.958;2023-04-10T23:37:01;99599.03;;;13.38;82.74
17230;BME280;8731;50.364;8.958;2023-04-10T23:41:26;99616.59;;;13.22;85.26